createdAt,value
2023-04-27T00:02:04.750Z,7.00
2023-04-27T00:04:32.814Z,7.55
2023-04-27T00:07:00.763Z,6.90
2023-04-27T00:09:29.894Z,7.25
2023-04-27T00:11:57.763Z,8.30
2023-04-27T00:14:28.338Z,7.95
2023-04-27T00:16:56.166Z,7.55
2023-04-27T00:19:23.952Z,8.10
2023-04-27T00:21:51.728Z,7.78
2023-04-27T00:24:19.525Z,7.25
2023-04-27T00:26:48.674Z,7.25
2023-04-27T00:29:16.470Z,7.22
2023-04-27T00:31:44.280Z,7.38
2023-04-27T00:34:12.144Z,7.07
2023-04-27T00:36:39.898Z,7.72
2023-04-27T00:39:07.824Z,7.40
2023-04-27T00:41:38.466Z,7.37
2023-04-27T00:44:07.708Z,7.22
2023-04-27T00:46:36.297Z,7.30
2023-04-27T00:49:04.154Z,7.22
2023-04-27T00:51:32.038Z,7.05
2023-04-27T00:54:00.812Z,6.70
2023-04-27T00:56:28.658Z,7.03
2023-04-27T00:58:56.591Z,7.20
2023-04-27T01:01:25.999Z,6.55
2023-04-27T01:03:54.511Z,7.00
2023-04-27T01:06:22.549Z,7.15
2023-04-27T01:08:50.383Z,7.28
2023-04-27T01:11:18.240Z,6.75
2023-04-27T01:13:46.175Z,7.07
2023-04-27T01:16:14.077Z,6.75
2023-04-27T01:18:44.496Z,6.35
2023-04-27T01:21:12.303Z,6.75
2023-04-27T01:23:41.416Z,6.30
2023-04-27T01:26:11.821Z,6.30
2023-04-27T01:28:39.603Z,6.30
2023-04-27T01:31:07.365Z,6.22
2023-04-27T01:33:35.250Z,6.40
2023-04-27T01:36:03.084Z,5.97
2023-04-27T01:38:31.132Z,6.35
2023-04-27T01:41:01.962Z,5.90
2023-04-27T01:43:29.812Z,6.38
2023-04-27T01:45:57.734Z,6.78
2023-04-27T01:48:25.622Z,6.60
2023-04-27T01:50:53.468Z,6.20
2023-04-27T01:53:21.815Z,6.45
2023-04-27T01:55:49.624Z,6.78
2023-04-27T01:58:18.752Z,6.35
2023-04-27T02:00:46.529Z,6.60
2023-04-27T02:03:14.400Z,6.05
2023-04-27T02:05:42.782Z,6.50
2023-04-27T02:08:10.656Z,6.35
2023-04-27T02:10:38.595Z,6.88
2023-04-27T02:13:06.399Z,6.28
2023-04-27T02:15:36.103Z,6.40
2023-04-27T02:18:04.709Z,6.43
2023-04-27T02:20:32.945Z,6.43
2023-04-27T02:23:00.933Z,6.43
2023-04-27T02:25:28.856Z,6.70
2023-04-27T02:27:56.924Z,6.70
2023-04-27T02:30:25.326Z,6.80
2023-04-27T02:32:55.035Z,7.80
2023-04-27T02:35:22.819Z,8.48
2023-04-27T02:37:50.593Z,7.07
2023-04-27T02:40:18.389Z,7.38
2023-04-27T02:42:46.170Z,7.60
2023-04-27T02:45:14.141Z,7.88
2023-04-27T02:47:42.054Z,8.20
2023-04-27T02:50:13.572Z,8.32
2023-04-27T02:52:41.324Z,8.10
2023-04-27T02:55:09.872Z,8.25
2023-04-27T02:57:37.748Z,8.73
2023-04-27T03:00:06.967Z,8.25
2023-04-27T03:02:35.062Z,7.80
2023-04-27T03:05:04.924Z,8.90
2023-04-27T03:07:34.253Z,8.43
2023-04-27T03:10:02.076Z,8.32
2023-04-27T03:12:29.860Z,8.75
2023-04-27T03:14:57.643Z,8.43
2023-04-27T03:17:25.530Z,8.45
2023-04-27T03:19:53.407Z,8.88
2023-04-27T03:22:21.279Z,9.02
2023-04-27T03:24:50.643Z,9.13
2023-04-27T03:27:18.464Z,9.00
2023-04-27T03:29:46.279Z,9.00
2023-04-27T03:32:14.125Z,9.55
2023-04-27T03:34:41.938Z,8.68
2023-04-27T03:37:09.721Z,9.13
2023-04-27T03:39:37.504Z,8.90
2023-04-27T03:42:06.882Z,7.97
2023-04-27T03:44:36.351Z,9.10
2023-04-27T03:47:08.974Z,9.20
2023-04-27T03:49:37.006Z,8.55
2023-04-27T03:52:05.363Z,8.70
2023-04-27T03:54:33.140Z,8.45
2023-04-27T03:57:02.569Z,8.63
2023-04-27T03:59:31.734Z,8.82
2023-04-27T04:02:00.964Z,9.07
2023-04-27T04:04:29.445Z,8.25
2023-04-27T04:06:57.408Z,8.98
2023-04-27T04:09:25.205Z,8.38
2023-04-27T04:11:53.255Z,8.90
2023-04-27T04:14:21.024Z,8.48
2023-04-27T04:16:50.120Z,8.70
2023-04-27T04:19:18.731Z,8.23
2023-04-27T04:21:47.314Z,8.80
2023-04-27T04:24:15.876Z,8.90
2023-04-27T04:26:43.689Z,8.02
2023-04-27T04:29:11.567Z,8.57
2023-04-27T04:31:39.901Z,7.73
2023-04-27T04:34:10.061Z,8.38
2023-04-27T04:36:37.949Z,8.63
2023-04-27T04:39:06.631Z,8.20
2023-04-27T04:41:34.548Z,8.83
2023-04-27T04:44:03.469Z,8.65
2023-04-27T04:46:31.526Z,8.60
2023-04-27T04:48:59.398Z,8.13
2023-04-27T04:51:28.588Z,7.75
2023-04-27T04:53:56.490Z,8.10
2023-04-27T04:56:24.523Z,8.02
2023-04-27T04:58:52.359Z,8.87
2023-04-27T05:01:20.157Z,8.07
2023-04-27T05:03:48.344Z,8.40
2023-04-27T05:06:16.287Z,7.97
2023-04-27T05:08:45.781Z,8.05
2023-04-27T05:11:13.682Z,8.18
2023-04-27T05:13:41.574Z,8.65
2023-04-27T05:16:09.904Z,8.50
2023-04-27T05:18:37.862Z,9.07
2023-04-27T05:21:05.917Z,7.90
2023-04-27T05:23:33.679Z,8.25
2023-04-27T05:26:02.819Z,8.77
2023-04-27T05:28:30.563Z,8.30
2023-04-27T05:30:58.319Z,9.30
2023-04-27T05:33:26.251Z,8.80
2023-04-27T05:35:53.969Z,8.93
2023-04-27T05:38:21.750Z,8.70
2023-04-27T05:40:56.130Z,8.80
2023-04-27T05:43:25.356Z,8.75
2023-04-27T05:45:53.522Z,8.53
2023-04-27T05:48:21.481Z,9.07
2023-04-27T05:50:49.419Z,8.18
2023-04-27T05:53:17.306Z,8.20
2023-04-27T05:55:45.094Z,8.00
2023-04-27T05:58:12.879Z,7.90
2023-04-27T06:00:42.163Z,7.45
2023-04-27T06:03:10.129Z,7.63
2023-04-27T06:05:38.256Z,7.70
2023-04-27T06:08:06.611Z,7.60
2023-04-27T06:10:34.470Z,7.77
2023-04-27T06:13:02.727Z,7.57
2023-04-27T06:15:30.645Z,7.55
2023-04-27T06:17:59.980Z,7.88
2023-04-27T06:20:27.862Z,7.93
2023-04-27T06:22:56.905Z,7.65
2023-04-27T06:25:27.068Z,8.68
2023-04-27T06:27:55.165Z,9.32
2023-04-27T06:30:23.121Z,8.05
2023-04-27T06:32:51.387Z,8.70
2023-04-27T06:35:21.409Z,9.07
2023-04-27T06:37:49.200Z,9.70
2023-04-27T06:40:17.156Z,10.70
2023-04-27T06:42:44.976Z,10.75
2023-04-27T06:45:13.219Z,11.98
2023-04-27T06:47:41.235Z,12.03
2023-04-27T06:50:09.655Z,10.40
2023-04-27T06:52:38.798Z,9.88
2023-04-27T06:55:07.571Z,10.13
2023-04-27T06:57:35.552Z,10.27
2023-04-27T07:00:04.985Z,10.60
2023-04-27T07:02:32.885Z,10.25
2023-04-27T07:05:00.892Z,9.55
2023-04-27T07:07:28.954Z,8.75
2023-04-27T07:09:58.196Z,9.15
2023-04-27T07:12:26.060Z,9.40
2023-04-27T07:14:53.876Z,9.10
2023-04-27T07:17:21.803Z,9.40
2023-04-27T07:19:49.918Z,8.77
2023-04-27T07:22:17.986Z,9.60
2023-04-27T07:24:45.943Z,9.50
2023-04-27T07:27:15.083Z,9.45
2023-04-27T07:29:43.416Z,9.32
2023-04-27T07:32:11.440Z,9.80
2023-04-27T07:34:51.949Z,8.40
2023-04-27T07:37:20.955Z,8.55
2023-04-27T07:39:50.176Z,8.32
2023-04-27T07:42:19.670Z,8.45
2023-04-27T07:44:47.445Z,10.43
2023-04-27T07:47:15.252Z,7.97
2023-04-27T07:49:45.438Z,7.95
2023-04-27T07:52:13.831Z,7.07
2023-04-27T07:54:41.822Z,7.53
2023-04-27T07:57:11.485Z,7.57
2023-04-27T07:59:40.750Z,7.82
2023-04-27T08:02:19.167Z,8.10
2023-04-27T08:04:49.234Z,7.43
2023-04-27T08:07:18.044Z,7.45
2023-04-27T08:09:46.122Z,7.20
2023-04-27T08:12:14.023Z,7.53
2023-04-27T08:14:43.254Z,9.73
2023-04-27T08:17:11.287Z,7.70
2023-04-27T08:19:39.383Z,7.60
2023-04-27T08:22:07.208Z,7.63
2023-04-27T08:24:35.454Z,7.32
2023-04-27T08:27:04.308Z,7.22
2023-04-27T08:29:32.386Z,7.55
2023-04-27T08:32:03.283Z,7.00
2023-04-27T08:34:32.094Z,7.68
2023-04-27T08:37:00.291Z,6.80
2023-04-27T08:39:28.699Z,6.88
2023-04-27T08:41:56.547Z,7.25
2023-04-27T08:44:24.423Z,7.40
2023-04-27T08:46:52.555Z,7.35
2023-04-27T08:49:22.030Z,7.70
2023-04-27T08:51:50.040Z,7.05
2023-04-27T08:54:18.657Z,6.80
2023-04-27T08:56:46.484Z,7.15
2023-04-27T08:59:16.492Z,7.15
2023-04-27T09:01:46.745Z,6.80
2023-04-27T09:04:14.928Z,7.13
2023-04-27T09:06:44.548Z,6.75
2023-04-27T09:09:23.277Z,6.55
2023-04-27T09:11:51.284Z,7.07
2023-04-27T09:14:20.656Z,6.63
2023-04-27T09:16:57.344Z,6.28
2023-04-27T09:19:25.815Z,6.17
2023-04-27T09:22:04.814Z,5.85
2023-04-27T09:24:32.629Z,5.97
2023-04-27T09:27:01.607Z,7.10
2023-04-27T09:29:36.693Z,5.93
2023-04-27T09:32:17.174Z,5.72
2023-04-27T09:34:45.581Z,5.50
2023-04-27T09:37:15.729Z,5.47
2023-04-27T09:39:44.353Z,5.75
2023-04-27T09:42:13.652Z,6.55
2023-04-27T09:44:41.538Z,6.05
2023-04-27T09:47:10.155Z,5.80
2023-04-27T09:49:38.772Z,5.65
2023-04-27T09:52:06.744Z,5.90
2023-04-27T09:54:37.254Z,5.65
2023-04-27T09:57:18.836Z,5.38
2023-04-27T10:00:01.286Z,5.47
2023-04-27T10:02:33.187Z,4.70
2023-04-27T10:05:26.789Z,4.45
2023-04-27T10:07:55.083Z,4.40
2023-04-27T10:10:24.227Z,4.57
2023-04-27T10:12:59.242Z,4.30
2023-04-27T10:15:28.969Z,4.28
2023-04-27T10:17:58.905Z,4.20
2023-04-27T10:20:31.846Z,4.30
2023-04-27T10:23:00.457Z,4.53
2023-04-27T10:25:31.579Z,4.07
2023-04-27T10:28:01.020Z,3.93
2023-04-27T10:30:33.246Z,3.90
2023-04-27T10:33:06.337Z,4.20
2023-04-27T10:35:35.823Z,3.85
2023-04-27T10:38:08.514Z,3.90
2023-04-27T10:40:38.383Z,3.70
2023-04-27T10:43:10.224Z,3.78
2023-04-27T10:45:38.306Z,3.92
2023-04-27T10:48:07.396Z,3.47
2023-04-27T10:50:35.546Z,3.90
2023-04-27T10:53:05.413Z,3.83
2023-04-27T10:55:34.072Z,11.60
2023-04-27T10:58:04.179Z,3.88
2023-04-27T11:00:33.532Z,4.25
2023-04-27T11:03:14.163Z,4.20
2023-04-27T11:05:44.997Z,3.13
2023-04-27T11:08:14.573Z,4.00
2023-04-27T11:10:46.235Z,3.97
2023-04-27T11:13:17.659Z,4.30
2023-04-27T11:15:49.957Z,4.20
2023-04-27T11:18:19.422Z,4.40
2023-04-27T11:20:49.195Z,3.85
2023-04-27T11:23:25.913Z,4.18
2023-04-27T11:25:54.296Z,4.20
2023-04-27T11:28:24.099Z,4.50
2023-04-27T11:30:57.411Z,3.85
2023-04-27T11:33:25.214Z,4.10
2023-04-27T11:35:53.073Z,4.18
2023-04-27T11:38:21.938Z,3.85
2023-04-27T11:41:01.204Z,4.25
2023-04-27T11:43:30.549Z,4.38
2023-04-27T11:45:58.829Z,3.92
2023-04-27T11:48:28.314Z,4.40
2023-04-27T11:51:01.116Z,4.18
2023-04-27T11:53:33.715Z,4.18
2023-04-27T11:56:03.016Z,3.83
2023-04-27T11:58:34.518Z,4.25
2023-04-27T12:01:02.402Z,4.28
2023-04-27T12:03:30.882Z,4.40
2023-04-27T12:06:11.750Z,4.10
2023-04-27T12:08:46.925Z,3.50
2023-04-27T12:11:14.949Z,5.25
2023-04-27T12:13:44.096Z,4.78
2023-04-27T12:16:12.196Z,3.72
2023-04-27T12:18:40.049Z,3.90
2023-04-27T12:21:08.560Z,3.67
2023-04-27T12:23:36.858Z,4.30
2023-04-27T12:26:05.086Z,3.50
2023-04-27T12:28:32.836Z,4.05
2023-04-27T12:31:04.132Z,3.70
2023-04-27T12:33:32.100Z,3.30
2023-04-27T12:36:00.056Z,3.20
2023-04-27T12:38:34.456Z,5.47
2023-04-27T12:41:05.915Z,3.88
2023-04-27T12:43:36.261Z,3.50
2023-04-27T12:46:05.467Z,3.53
2023-04-27T12:48:33.664Z,3.20
2023-04-27T12:51:01.668Z,3.30
2023-04-27T12:53:30.922Z,3.50
2023-04-27T12:56:00.645Z,4.63
2023-04-27T12:58:28.561Z,3.38
2023-04-27T13:00:57.593Z,3.50
2023-04-27T13:03:27.239Z,3.20
2023-04-27T13:05:55.226Z,3.20
2023-04-27T13:08:23.042Z,3.60
2023-04-27T13:10:50.925Z,3.67
2023-04-27T13:13:18.731Z,3.50
2023-04-27T13:15:46.643Z,3.92
2023-04-27T13:18:14.489Z,3.50
2023-04-27T13:20:44.270Z,4.30
2023-04-27T13:23:13.640Z,3.90
2023-04-27T13:25:41.546Z,4.32
2023-04-27T13:28:09.539Z,3.50
2023-04-27T13:30:37.465Z,3.35
2023-04-27T13:33:21.209Z,4.28
2023-04-27T13:35:52.635Z,3.05
2023-04-27T13:38:20.575Z,3.30
2023-04-27T13:40:48.502Z,3.67
2023-04-27T13:43:16.342Z,3.22
2023-04-27T13:45:45.208Z,3.17
2023-04-27T13:48:13.179Z,3.40
2023-04-27T13:50:41.135Z,2.63
2023-04-27T13:53:10.609Z,3.25
2023-04-27T13:55:38.404Z,2.85
2023-04-27T13:58:06.311Z,2.65
2023-04-27T14:00:34.670Z,2.80
2023-04-27T14:03:04.908Z,3.00
2023-04-27T14:05:33.258Z,4.28
2023-04-27T14:08:01.259Z,2.60
2023-04-27T14:10:30.722Z,2.47
2023-04-27T14:12:58.736Z,2.38
2023-04-27T14:15:27.413Z,2.60
2023-04-27T14:17:55.401Z,2.70
2023-04-27T14:20:24.548Z,2.50
2023-04-27T14:22:52.417Z,3.10
2023-04-27T14:25:20.279Z,2.78
2023-04-27T14:27:49.701Z,3.08
2023-04-27T14:30:19.308Z,2.83
2023-04-27T14:32:49.069Z,2.83
2023-04-27T14:35:16.892Z,2.80
2023-04-27T14:37:44.691Z,2.60
2023-04-27T14:40:13.386Z,2.78
2023-04-27T14:42:41.446Z,3.22
2023-04-27T14:45:12.033Z,2.33
2023-04-27T14:47:39.935Z,3.90
2023-04-27T14:50:08.933Z,2.90
2023-04-27T14:52:36.758Z,2.85
2023-04-27T14:55:04.872Z,2.72
2023-04-27T14:57:32.997Z,2.67
2023-04-27T15:00:01.131Z,2.53
2023-04-27T15:02:32.487Z,2.78
2023-04-27T15:05:02.003Z,2.83
2023-04-27T15:07:29.980Z,2.70
2023-04-27T15:09:57.935Z,3.00
2023-04-27T15:12:25.880Z,3.10
2023-04-27T15:14:53.849Z,2.53
2023-04-27T15:17:21.822Z,3.15
2023-04-27T15:19:51.645Z,2.85
2023-04-27T15:22:19.738Z,3.00
2023-04-27T15:24:47.652Z,2.95
2023-04-27T15:27:15.689Z,3.50
2023-04-27T15:29:43.883Z,3.20
2023-04-27T15:32:11.765Z,2.88
2023-04-27T15:34:42.582Z,7.43
2023-04-27T15:37:11.969Z,9.60
2023-04-27T15:39:39.870Z,2.92
2023-04-27T15:42:07.733Z,2.80
2023-04-27T15:44:35.657Z,3.38
2023-04-27T15:47:03.751Z,2.50
2023-04-27T15:49:34.382Z,2.80
2023-04-27T15:52:06.034Z,2.87
2023-04-27T15:54:35.337Z,3.00
2023-04-27T15:57:04.065Z,2.58
2023-04-27T15:59:31.978Z,2.80
2023-04-27T16:01:59.830Z,2.78
2023-04-27T16:04:27.844Z,2.50
2023-04-27T16:06:55.850Z,2.70
2023-04-27T16:09:25.434Z,2.87
2023-04-27T16:11:55.443Z,3.47
2023-04-27T16:14:23.231Z,2.90
2023-04-27T16:16:51.900Z,2.90
2023-04-27T16:19:19.866Z,2.65
2023-04-27T16:21:48.020Z,2.90
2023-04-27T16:24:15.882Z,2.40
2023-04-27T16:26:43.705Z,2.63
2023-04-27T16:29:12.952Z,2.50
2023-04-27T16:31:42.607Z,3.03
2023-04-27T16:34:10.560Z,3.27
2023-04-27T16:36:38.410Z,2.90
2023-04-27T16:39:06.215Z,2.70
2023-04-27T16:41:34.040Z,2.78
2023-04-27T16:44:02.897Z,3.72
2023-04-27T16:46:32.157Z,2.40
2023-04-27T16:49:00.019Z,2.58
2023-04-27T16:51:28.763Z,2.17
2023-04-27T16:53:56.696Z,2.17
2023-04-27T16:56:28.549Z,2.13
2023-04-27T16:59:00.718Z,2.30
2023-04-27T17:01:29.549Z,2.13
2023-04-27T17:04:01.039Z,2.28
2023-04-27T17:06:29.857Z,2.00
2023-04-27T17:08:58.258Z,2.17
2023-04-27T17:11:26.373Z,2.00
2023-04-27T17:13:54.270Z,2.65
2023-04-27T17:16:22.269Z,3.00
2023-04-27T17:18:50.441Z,3.40
2023-04-27T17:21:22.500Z,3.33
2023-04-27T17:23:52.011Z,3.80
2023-04-27T17:26:21.457Z,3.60
2023-04-27T17:28:50.091Z,3.60
2023-04-27T17:31:18.193Z,4.68
2023-04-27T17:33:46.394Z,3.25
2023-04-27T17:36:14.821Z,3.45
2023-04-27T17:38:44.021Z,3.70
2023-04-27T17:41:11.843Z,3.75
2023-04-27T17:43:39.581Z,4.10
2023-04-27T17:46:09.512Z,3.83
2023-04-27T17:48:37.821Z,3.70
2023-04-27T17:51:05.699Z,3.80
2023-04-27T17:53:33.526Z,3.83
2023-04-27T17:56:02.607Z,3.58
2023-04-27T17:58:30.399Z,3.10
2023-04-27T18:00:58.306Z,3.30
2023-04-27T18:03:27.161Z,3.23
2023-04-27T18:05:55.092Z,3.22
2023-04-27T18:08:22.898Z,3.20
2023-04-27T18:10:50.862Z,3.20
2023-04-27T18:13:19.963Z,3.10
2023-04-27T18:15:47.705Z,3.40
2023-04-27T18:18:20.218Z,3.38
2023-04-27T18:20:48.187Z,3.30
2023-04-27T18:23:16.086Z,3.53
2023-04-27T18:25:43.887Z,3.15
2023-04-27T18:28:11.995Z,3.00
2023-04-27T18:30:41.287Z,3.10
2023-04-27T18:33:09.199Z,2.92
2023-04-27T18:35:37.154Z,3.20
2023-04-27T18:38:04.954Z,3.22
2023-04-27T18:40:32.964Z,3.90
2023-04-27T18:43:01.140Z,3.37
2023-04-27T18:45:28.973Z,3.40
2023-04-27T18:47:58.119Z,3.58
2023-04-27T18:50:25.985Z,3.40
2023-04-27T18:52:53.780Z,3.53
2023-04-27T18:55:21.864Z,3.60
2023-04-27T18:57:49.637Z,3.90
2023-04-27T19:00:17.765Z,3.83
2023-04-27T19:02:45.662Z,3.92
2023-04-27T19:05:15.866Z,3.90
2023-04-27T19:07:43.695Z,4.40
2023-04-27T19:10:12.609Z,4.90
2023-04-27T19:12:40.447Z,4.43
2023-04-27T19:15:08.945Z,4.37
2023-04-27T19:17:36.884Z,4.70
2023-04-27T19:20:05.722Z,4.60
2023-04-27T19:22:36.609Z,4.57
2023-04-27T19:25:04.440Z,5.00
2023-04-27T19:27:32.696Z,4.72
2023-04-27T19:30:02.378Z,5.00
2023-04-27T19:32:30.715Z,4.70
2023-04-27T19:34:59.849Z,5.78
2023-04-27T19:37:28.904Z,5.43
2023-04-27T19:39:58.056Z,5.18
2023-04-27T19:42:26.248Z,5.80
2023-04-27T19:44:55.619Z,5.55
2023-04-27T19:47:23.828Z,5.05
2023-04-27T19:49:51.645Z,5.13
2023-04-27T19:52:19.479Z,5.30
2023-04-27T19:54:52.498Z,4.93
2023-04-27T19:57:22.049Z,4.70
2023-04-27T19:59:49.918Z,4.87
2023-04-27T20:02:18.407Z,4.90
2023-04-27T20:04:47.052Z,4.63
2023-04-27T20:07:15.030Z,5.22
2023-04-27T20:09:42.868Z,4.50
2023-04-27T20:12:23.656Z,4.75
2023-04-27T20:15:00.201Z,4.90
2023-04-27T20:17:28.100Z,4.40
2023-04-27T20:19:56.297Z,4.63
2023-04-27T20:22:24.589Z,4.78
2023-04-27T20:24:52.574Z,4.70
2023-04-27T20:27:20.425Z,4.70
2023-04-27T20:29:48.273Z,5.25
2023-04-27T20:32:17.513Z,5.32
2023-04-27T20:34:45.328Z,4.90
2023-04-27T20:37:13.522Z,5.40
2023-04-27T20:39:41.410Z,5.53
2023-04-27T20:42:09.515Z,5.55
2023-04-27T20:44:39.021Z,4.90
2023-04-27T20:47:06.903Z,5.20
2023-04-27T20:49:36.055Z,5.35
2023-04-27T20:52:03.959Z,5.15
2023-04-27T20:54:32.622Z,5.57
2023-04-27T20:57:02.017Z,5.50
2023-04-27T20:59:29.817Z,5.50
2023-04-27T21:01:57.595Z,5.57
2023-04-27T21:04:25.480Z,5.40
2023-04-27T21:06:54.967Z,5.47
2023-04-27T21:09:22.753Z,5.73
2023-04-27T21:11:50.519Z,5.63
2023-04-27T21:14:18.331Z,5.47
2023-04-27T21:16:46.143Z,5.53
2023-04-27T21:19:16.076Z,5.82
2023-04-27T21:21:43.927Z,5.43
2023-04-27T21:24:13.110Z,5.80
2023-04-27T21:26:42.109Z,5.63
2023-04-27T21:29:09.924Z,5.55
2023-04-27T21:31:37.848Z,5.50
2023-04-27T21:34:05.769Z,5.93
2023-04-27T21:36:33.876Z,5.80
2023-04-27T21:39:01.683Z,5.55
2023-04-27T21:41:30.884Z,5.60
2023-04-27T21:43:58.764Z,5.93
2023-04-27T21:46:26.572Z,6.03
2023-04-27T21:48:54.327Z,5.80
2023-04-27T21:51:22.125Z,5.70
2023-04-27T21:53:49.957Z,6.00
2023-04-27T21:56:17.750Z,6.53
2023-04-27T21:58:46.886Z,5.55
2023-04-27T22:01:14.696Z,6.10
2023-04-27T22:03:42.565Z,6.37
2023-04-27T22:06:10.614Z,6.07
2023-04-27T22:08:38.454Z,5.82
2023-04-27T22:11:06.461Z,6.15
2023-04-27T22:13:34.281Z,5.90
2023-04-27T22:16:03.469Z,5.70
2023-04-27T22:18:31.460Z,5.70
2023-04-27T22:20:59.247Z,5.80
2023-04-27T22:23:27.121Z,5.45
2023-04-27T22:25:54.907Z,5.53
2023-04-27T22:28:22.728Z,5.72
2023-04-27T22:30:50.542Z,5.88
2023-04-27T22:33:19.740Z,5.80
2023-04-27T22:35:47.703Z,5.32
2023-04-27T22:38:15.756Z,5.18
2023-04-27T22:40:43.579Z,5.50
2023-04-27T22:43:11.431Z,5.53
2023-04-27T22:45:39.240Z,5.30
2023-04-27T22:48:07.714Z,5.38
2023-04-27T22:50:37.009Z,5.85
2023-04-27T22:53:04.939Z,5.80
2023-04-27T22:55:32.754Z,5.78
2023-04-27T22:58:00.558Z,6.47
2023-04-27T23:00:28.428Z,5.82
2023-04-27T23:02:56.289Z,5.90
2023-04-27T23:05:24.457Z,5.72
2023-04-27T23:07:53.592Z,6.07
2023-04-27T23:10:21.370Z,5.93
2023-04-27T23:12:50.621Z,5.90
2023-04-27T23:15:18.445Z,5.93
2023-04-27T23:17:46.237Z,6.07
2023-04-27T23:20:27.490Z,5.70
2023-04-27T23:22:58.123Z,5.80
2023-04-27T23:25:26.060Z,5.97
2023-04-27T23:27:53.831Z,5.38
2023-04-27T23:30:22.244Z,5.35
2023-04-27T23:32:50.315Z,5.28
2023-04-27T23:35:18.310Z,4.75
2023-04-27T23:37:46.120Z,4.87
2023-04-27T23:40:15.445Z,5.15
2023-04-27T23:42:43.199Z,4.70
2023-04-27T23:45:11.884Z,4.50
2023-04-27T23:47:39.743Z,4.30
2023-04-27T23:50:08.461Z,4.50
2023-04-27T23:52:36.283Z,4.32
2023-04-27T23:55:04.209Z,4.30
2023-04-27T23:57:33.296Z,4.35
